Time;durP1;ratioP1;P1;durP2;ratioP2;P2;SDS_P1;SDS_P2;PMS_P1;PMS_P2;Temp;Humidity;BMP_temperature;BMP_pressure;BME280_temperature;BME280_humidity;BME280_pressure;Samples;Min_cycle;Max_cycle;Signal;HPM_P1;HPM_P2
2022/09/13 00:13:09;;;;;;;;;;;;;;;16.44;65.53;99218.81;5010994;28;1236;-60
2022/09/13 00:15:36;;;;;;;;;;;;;;;16.39;65.51;99225.00;5014305;28;814;-62
2022/09/13 00:18:03;;;;;;;;;;;;;;;16.30;66.11;99219.34;5014204;28;814;-62
2022/09/13 00:20:29;;;;;;;;;;;;;;;16.21;66.69;99222.84;5014235;28;786;-61
2022/09/13 00:22:56;;;;;;;;;;;;;;;16.11;66.86;99226.84;4996489;28;1220;-62
2022/09/13 00:25:23;;;;;;;;;;;;;;;16.11;67.40;99227.63;5014161;28;846;-62
2022/09/13 00:27:50;;;;;;;;;;;;;;;16.12;67.35;99229.16;4996293;28;1972;-62
2022/09/13 00:30:17;;;;;;;;;;;;;;;15.96;67.85;99221.00;5014030;28;845;-62
2022/09/13 00:32:43;;;;;;;;;;;;;;;15.93;68.12;99228.25;5013871;28;870;-63
2022/09/13 00:35:10;;;;;;;;;;;;;;;15.94;68.07;99226.25;5014011;28;810;-62
2022/09/13 00:37:38;;;;;;;;;;;;;;;15.91;68.54;99227.16;4996245;28;1205;-62
2022/09/13 00:40:05;;;;;;;;;;;;;;;15.91;68.84;99221.56;5013866;28;822;-62
2022/09/13 00:42:32;;;;;;;;;;;;;;;15.91;68.95;99221.56;5013663;28;846;-61
2022/09/13 00:45:14;;;;;;;;;;;;;;;15.86;69.09;99228.50;5013750;28;811;-61
2022/09/13 00:47:53;;;;;;;;;;;;;;;15.77;69.63;99225.66;4995983;28;1942;-62
2022/09/13 00:50:38;;;;;;;;;;;;;;;15.71;69.75;99233.00;5013625;28;807;-62
2022/09/13 00:53:19;;;;;;;;;;;;;;;15.68;69.98;99231.91;4995928;28;1185;-62
2022/09/13 00:55:52;;;;;;;;;;;;;;;15.67;70.36;99235.91;5013967;28;846;-62
2022/09/13 00:58:27;;;;;;;;;;;;;;;15.71;70.10;99235.78;5013779;28;892;-61
2022/09/13 01:00:55;;;;;;;;;;;;;;;15.65;70.34;99229.25;4995858;28;1208;-62
2022/09/13 01:03:24;;;;;;;;;;;;;;;15.52;70.51;99234.84;5013330;28;822;-61
2022/09/13 01:05:53;;;;;;;;;;;;;;;15.39;71.41;99234.88;5011972;28;1943;-62
2022/09/13 01:08:21;;;;;;;;;;;;;;;15.35;71.73;99236.22;4995648;28;1339;-62
2022/09/13 01:10:50;;;;;;;;;;;;;;;15.35;71.78;99231.44;5012539;28;913;-62
2022/09/13 01:13:23;;;;;;;;;;;;;;;15.29;72.27;99233.22;4980002;28;1441;-62
2022/09/13 01:15:50;;;;;;;;;;;;;;;15.20;72.74;99231.13;4993654;28;877;-61
2022/09/13 01:18:18;;;;;;;;;;;;;;;15.19;73.03;99228.78;4993425;28;866;-62
2022/09/13 01:20:45;;;;;;;;;;;;;;;15.25;72.93;99230.56;4993551;28;867;-61
2022/09/13 01:23:40;;;;;;;;;;;;;;;15.26;73.19;99231.34;4993387;28;862;-62
2022/09/13 01:26:15;;;;;;;;;;;;;;;15.35;72.96;99239.03;4993316;28;1914;-62
2022/09/13 01:29:00;;;;;;;;;;;;;;;15.28;73.13;99240.81;4993440;28;843;-62
2022/09/13 01:31:53;;;;;;;;;;;;;;;15.07;73.77;99238.72;4993258;28;866;-62
2022/09/13 01:34:35;;;;;;;;;;;;;;;14.81;74.74;99240.75;4973921;28;1205;-62
2022/09/13 01:37:10;;;;;;;;;;;;;;;14.66;75.46;99248.75;4993216;28;873;-61
2022/09/13 01:39:54;;;;;;;;;;;;;;;14.50;76.08;99247.56;4975575;28;1218;-61
2022/09/13 01:42:41;;;;;;;;;;;;;;;14.32;76.72;99241.78;4993328;28;795;-62
2022/09/13 01:45:29;;;;;;;;;;;;;;;14.15;77.39;99251.41;4993276;28;808;-62
2022/09/13 01:48:02;;;;;;;;;;;;;;;13.95;77.87;99240.44;4975674;28;1871;-62
2022/09/13 01:50:44;;;;;;;;;;;;;;;13.86;78.75;99238.28;4992891;28;826;-61
2022/09/13 01:53:11;;;;;;;;;;;;;;;14.11;79.14;99231.28;4993205;28;811;-62
2022/09/13 01:55:38;;;;;;;;;;;;;;;14.36;78.87;99233.31;4975578;28;992;-61
2022/09/13 01:58:14;;;;;;;;;;;;;;;14.49;78.36;99239.69;4993058;28;863;-61
2022/09/13 02:00:52;;;;;;;;;;;;;;;14.56;78.18;99247.06;4975299;28;1340;-61
2022/09/13 02:03:24;;;;;;;;;;;;;;;14.65;77.91;99247.94;4992763;28;807;-61
2022/09/13 02:06:06;;;;;;;;;;;;;;;14.66;77.72;99251.53;4992744;28;1954;-61
2022/09/13 02:08:49;;;;;;;;;;;;;;;14.56;78.22;99249.84;4992611;28;877;-60
2022/09/13 02:11:17;;;;;;;;;;;;;;;14.39;78.71;99251.91;4975025;28;1388;-61
2022/09/13 02:13:49;;;;;;;;;;;;;;;14.35;78.95;99256.78;5011887;28;1437;-61
2022/09/13 02:16:33;;;;;;;;;;;;;;;14.45;79.03;99256.47;5012178;28;834;-61
2022/09/13 02:19:06;;;;;;;;;;;;;;;14.59;78.47;99254.50;5012119;28;818;-61
2022/09/13 02:21:37;;;;;;;;;;;;;;;14.72;78.28;99257.31;5012226;28;881;-60
2022/09/13 02:24:10;;;;;;;;;;;;;;;14.74;77.97;99271.56;5012075;28;889;-60
2022/09/13 02:26:40;;;;;;;;;;;;;;;14.64;78.18;99263.09;5011946;28;1910;-61
2022/09/13 02:29:12;;;;;;;;;;;;;;;14.65;78.26;99258.31;5012230;28;818;-61
2022/09/13 02:31:46;;;;;;;;;;;;;;;14.59;78.55;99249.72;5011980;28;795;-61
2022/09/13 02:34:22;;;;;;;;;;;;;;;14.50;78.87;99257.91;5011924;28;861;-61
2022/09/13 02:36:51;;;;;;;;;;;;;;;14.55;78.90;99251.03;5011890;28;802;-61
2022/09/13 02:39:23;;;;;;;;;;;;;;;14.60;79.15;99262.41;5011658;28;858;-61
2022/09/13 02:41:50;;;;;;;;;;;;;;;14.60;79.49;99256.84;5012352;28;747;-61
2022/09/13 02:44:25;;;;;;;;;;;;;;;14.60;79.76;99250.53;5011935;28;850;-60
2022/09/13 02:47:00;;;;;;;;;;;;;;;14.53;80.29;99250.69;5012030;28;1944;-62
2022/09/13 02:49:30;;;;;;;;;;;;;;;14.54;80.79;99250.25;5011724;28;882;-61
2022/09/13 02:52:04;;;;;;;;;;;;;;;14.55;81.04;99254.63;5011793;28;960;-61
2022/09/13 02:54:37;;;;;;;;;;;;;;;14.56;81.24;99250.63;5011766;28;877;-61
2022/09/13 02:57:14;;;;;;;;;;;;;;;14.53;81.39;99248.72;4994009;28;1288;-60
2022/09/13 02:59:40;;;;;;;;;;;;;;;14.56;81.81;99249.84;5011799;28;1077;-60
2022/09/13 03:02:19;;;;;;;;;;;;;;;14.62;82.10;99270.34;5011767;28;846;-60
2022/09/13 03:04:46;;;;;;;;;;;;;;;14.69;81.84;99265.31;5011646;28;834;-62
2022/09/13 03:07:14;;;;;;;;;;;;;;;14.85;81.83;99260.88;5011598;28;1882;-61
2022/09/13 03:09:46;;;;;;;;;;;;;;;14.96;82.05;99266.91;5011406;28;905;-60
2022/09/13 03:12:25;;;;;;;;;;;;;;;15.07;82.00;99272.13;5011511;28;1450;-60
2022/09/13 03:15:01;;;;;;;;;;;;;;;15.15;81.95;99267.09;4993870;28;1230;-61
2022/09/13 03:17:33;;;;;;;;;;;;;;;15.18;81.80;99260.66;5011485;28;795;-61
2022/09/13 03:20:10;;;;;;;;;;;;;;;15.21;81.37;99266.09;4993907;28;863;-61
2022/09/13 03:22:55;;;;;;;;;;;;;;;15.25;81.30;99272.31;4993835;28;1392;-61
2022/09/13 03:25:25;;;;;;;;;;;;;;;15.31;81.26;99266.97;5011347;28;846;-62
2022/09/13 03:27:58;;;;;;;;;;;;;;;15.30;81.10;99268.97;4993597;28;1910;-62
2022/09/13 03:30:25;;;;;;;;;;;;;;;15.30;81.17;99274.56;5011509;28;795;-61
2022/09/13 03:33:04;;;;;;;;;;;;;;;15.31;81.35;99278.09;5011345;28;870;-61
2022/09/13 03:35:58;;;;;;;;;;;;;;;15.30;81.34;99274.56;4997176;28;1288;-61
2022/09/13 03:38:29;;;;;;;;;;;;;;;15.30;81.54;99276.56;5012852;28;1164;-61
2022/09/13 03:41:01;;;;;;;;;;;;;;;15.32;81.72;99279.69;4997319;28;1275;-61
2022/09/13 03:43:42;;;;;;;;;;;;;;;15.35;81.82;99278.78;5014994;28;921;-61
2022/09/13 03:46:12;;;;;;;;;;;;;;;15.37;81.80;99290.25;5014760;28;1953;-61
2022/09/13 03:48:40;;;;;;;;;;;;;;;15.39;81.86;99287.00;5014754;28;873;-61
2022/09/13 03:51:08;;;;;;;;;;;;;;;15.38;81.80;99289.00;5014995;28;877;-61
2022/09/13 03:53:37;;;;;;;;;;;;;;;15.38;81.82;99296.59;5015145;28;787;-61
2022/09/13 03:56:20;;;;;;;;;;;;;;;15.34;81.88;99288.38;5014706;28;866;-61
2022/09/13 03:58:47;;;;;;;;;;;;;;;15.35;81.90;99295.47;5014629;28;877;-61
2022/09/13 04:01:20;;;;;;;;;;;;;;;15.36;81.80;99290.69;5014516;28;850;-61
2022/09/13 04:03:47;;;;;;;;;;;;;;;15.36;81.98;99293.47;5014556;28;810;-61
2022/09/13 04:06:16;;;;;;;;;;;;;;;15.36;81.75;99293.47;5014408;28;1949;-61
2022/09/13 04:08:43;;;;;;;;;;;;;;;15.34;81.79;99295.91;5014325;28;834;-61
2022/09/13 04:11:10;;;;;;;;;;;;;;;15.31;81.91;99292.78;5014510;28;879;-61
2022/09/13 04:13:37;;;;;;;;;;;;;;;15.32;81.89;99299.94;5012919;28;1423;-61
2022/09/13 04:16:04;;;;;;;;;;;;;;;15.36;81.65;99305.38;5014317;28;838;-61
2022/09/13 04:18:31;;;;;;;;;;;;;;;15.39;81.54;99296.16;5014220;28;853;-61
2022/09/13 04:20:58;;;;;;;;;;;;;;;15.46;81.39;99293.13;4996539;28;1206;-61
2022/09/13 04:23:26;;;;;;;;;;;;;;;15.54;81.35;99306.81;5014212;28;869;-61
2022/09/13 04:25:53;;;;;;;;;;;;;;;15.59;81.15;99303.47;5014015;28;2001;-61
2022/09/13 04:28:20;;;;;;;;;;;;;;;15.62;81.09;99311.69;5014117;28;1017;-61
2022/09/13 04:30:48;;;;;;;;;;;;;;;15.64;81.36;99312.03;5013981;28;814;-61
2022/09/13 04:33:16;;;;;;;;;;;;;;;15.69;81.02;99311.47;5013948;28;858;-61
2022/09/13 04:35:42;;;;;;;;;;;;;;;15.80;80.89;99305.53;5013957;28;795;-61
2022/09/13 04:38:08;;;;;;;;;;;;;;;15.86;80.71;99305.75;5013838;28;1037;-61
2022/09/13 04:40:36;;;;;;;;;;;;;;;15.93;80.43;99314.63;5013780;28;901;-61
2022/09/13 04:43:03;;;;;;;;;;;;;;;16.02;80.24;99313.94;5013750;28;925;-61
2022/09/13 04:45:29;;;;;;;;;;;;;;;16.15;79.94;99313.88;5012609;28;811;-62
2022/09/13 04:47:56;;;;;;;;;;;;;;;16.27;79.56;99315.84;5013644;28;1894;-61
2022/09/13 04:50:23;;;;;;;;;;;;;;;16.37;79.57;99316.72;5013874;28;867;-61
2022/09/13 04:52:50;;;;;;;;;;;;;;;16.47;79.26;99317.53;5013629;28;866;-61
2022/09/13 04:55:17;;;;;;;;;;;;;;;16.59;79.01;99319.47;5013515;28;819;-61
2022/09/13 04:57:43;;;;;;;;;;;;;;;16.68;78.37;99319.53;5013491;28;826;-61
2022/09/13 05:00:10;;;;;;;;;;;;;;;16.77;78.15;99326.41;5013426;28;843;-61
2022/09/13 05:02:37;;;;;;;;;;;;;;;16.88;77.74;99321.22;5013388;28;901;-61
2022/09/13 05:05:03;;;;;;;;;;;;;;;16.98;77.25;99327.63;5013660;28;775;-61
2022/09/13 05:07:30;;;;;;;;;;;;;;;17.07;76.78;99324.88;5013223;28;1894;-61
2022/09/13 05:09:58;;;;;;;;;;;;;;;17.10;76.09;99330.31;5013474;28;1097;-60
2022/09/13 05:12:25;;;;;;;;;;;;;;;17.17;75.45;99328.47;5013122;28;1354;-61
2022/09/13 05:14:52;;;;;;;;;;;;;;;17.13;74.75;99329.41;5013247;28;874;-61
2022/09/13 05:17:20;;;;;;;;;;;;;;;17.13;74.70;99326.63;5013445;28;811;-60
2022/09/13 05:19:48;;;;;;;;;;;;;;;17.17;74.08;99331.28;5013092;28;899;-61
2022/09/13 05:22:18;;;;;;;;;;;;;;;17.16;73.70;99327.72;5013030;28;807;-60
2022/09/13 05:25:13;;;;;;;;;;;;;;;17.13;73.60;99326.63;5013029;28;834;-60
2022/09/13 05:27:40;;;;;;;;;;;;;;;17.10;73.84;99327.53;5012841;28;2052;-60
2022/09/13 05:30:06;;;;;;;;;;;;;;;17.16;73.60;99321.34;5012896;28;811;-60
2022/09/13 05:32:31;;;;;;;;;;;;;;;17.24;73.53;99320.63;4995266;28;1462;-60
2022/09/13 05:34:58;;;;;;;;;;;;;;;17.31;72.69;99325.13;5012778;28;887;-60
2022/09/13 05:37:29;;;;;;;;;;;;;;;17.33;72.33;99326.22;5012679;28;894;-60
2022/09/13 05:39:59;;;;;;;;;;;;;;;17.45;72.06;99323.75;5012680;28;902;-60
2022/09/13 05:42:26;;;;;;;;;;;;;;;17.57;71.27;99331.25;5012908;28;926;-60
2022/09/13 05:44:56;;;;;;;;;;;;;;;17.74;71.12;99323.38;5012824;28;843;-60
2022/09/13 05:47:25;;;;;;;;;;;;;;;17.82;70.37;99323.88;5012578;28;1961;-60
2022/09/13 05:52:56;;;;;;;;;;;;;;;17.99;68.82;99325.16;5010845;28;1024;-59
2022/09/13 05:55:22;;;;;;;;;;;;;;;18.00;68.06;99329.47;5012729;28;846;-60
2022/09/13 05:57:53;;;;;;;;;;;;;;;18.06;67.80;99327.63;5012202;28;819;-60
2022/09/13 06:00:20;;;;;;;;;;;;;;;18.21;66.76;99335.41;4994755;28;1335;-59
2022/09/13 06:02:46;;;;;;;;;;;;;;;18.32;65.72;99338.50;5012410;28;818;-60
2022/09/13 06:05:13;;;;;;;;;;;;;;;18.49;64.94;99336.94;5012176;28;799;-60
2022/09/13 06:07:40;;;;;;;;;;;;;;;18.74;64.76;99341.41;5012255;28;1898;-61
2022/09/13 06:10:08;;;;;;;;;;;;;;;18.92;64.14;99328.63;5012263;28;838;-61
2022/09/13 06:12:35;;;;;;;;;;;;;;;19.18;63.39;99335.38;5012166;28;1350;-61
2022/09/13 06:15:02;;;;;;;;;;;;;;;19.49;62.21;99339.13;5012185;28;795;-60
2022/09/13 06:17:29;;;;;;;;;;;;;;;19.78;60.74;99344.16;5012480;28;854;-60
2022/09/13 06:19:55;;;;;;;;;;;;;;;19.86;60.73;99341.75;5012004;28;838;-59
2022/09/13 06:22:22;;;;;;;;;;;;;;;20.02;60.18;99346.94;5012110;28;866;-60
2022/09/13 06:24:49;;;;;;;;;;;;;;;19.78;59.88;99344.16;5012020;28;826;-60
2022/09/13 06:27:16;;;;;;;;;;;;;;;19.50;60.67;99340.69;5012186;28;1914;-60
2022/09/13 06:29:43;;;;;;;;;;;;;;;19.88;59.25;99345.63;5012274;28;867;-60
2022/09/13 06:32:09;;;;;;;;;;;;;;;20.59;57.39;99343.22;5011972;28;827;-60
2022/09/13 06:34:36;;;;;;;;;;;;;;;21.90;52.25;99347.56;5011970;28;823;-60
2022/09/13 06:37:03;;;;;;;;;;;;;;;22.99;49.67;99346.16;5012129;28;788;-60
2022/09/13 06:39:31;;;;;;;;;;;;;;;24.10;47.05;99343.81;5012086;28;889;-60
2022/09/13 06:41:57;;;;;;;;;;;;;;;25.20;44.57;99347.91;5011905;28;811;-60
2022/09/13 06:44:24;;;;;;;;;;;;;;;25.85;42.45;99341.84;5012054;28;823;-60
2022/09/13 06:46:51;;;;;;;;;;;;;;;26.27;41.85;99345.56;5011882;28;1953;-60
2022/09/13 06:49:17;;;;;;;;;;;;;;;26.54;39.97;99340.25;5012072;28;859;-59
2022/09/13 06:51:43;;;;;;;;;;;;;;;26.08;39.32;99342.56;5011971;28;918;-60
2022/09/13 06:54:10;;;;;;;;;;;;;;;25.75;40.41;99349.09;5012126;28;771;-59
2022/09/13 06:56:37;;;;;;;;;;;;;;;25.45;39.58;99341.22;5011776;28;839;-60
2022/09/13 06:59:05;;;;;;;;;;;;;;;25.41;39.82;99345.56;5012329;28;823;-60
2022/09/13 07:01:36;;;;;;;;;;;;;;;25.84;38.11;99346.00;5011912;28;803;-60
2022/09/13 07:04:04;;;;;;;;;;;;;;;26.37;37.65;99339.59;5011561;28;854;-60
2022/09/13 07:06:32;;;;;;;;;;;;;;;26.63;36.04;99347.72;5011559;28;1886;-60
2022/09/13 07:08:59;;;;;;;;;;;;;;;26.31;36.28;99345.31;5012728;28;846;-60
2022/09/13 07:11:28;;;;;;;;;;;;;;;25.79;36.83;99329.78;5015569;28;1401;-60
2022/09/13 07:13:56;;;;;;;;;;;;;;;25.94;37.31;99337.22;5015488;28;810;-60
2022/09/13 07:16:25;;;;;;;;;;;;;;;26.34;36.83;99341.41;5015346;28;834;-60
2022/09/13 07:18:56;;;;;;;;;;;;;;;26.26;36.16;99341.19;5015420;28;859;-60
2022/09/13 07:21:23;;;;;;;;;;;;;;;25.97;36.21;99344.69;5015512;28;791;-60
2022/09/13 07:23:55;;;;;;;;;;;;;;;25.65;35.73;99340.13;5015271;28;823;-60
2022/09/13 07:26:26;;;;;;;;;;;;;;;25.53;35.94;99343.50;5015544;28;1918;-60
2022/09/13 07:28:54;;;;;;;;;;;;;;;25.11;36.02;99354.56;5015169;28;839;-60
2022/09/13 07:31:29;;;;;;;;;;;;;;;24.90;36.88;99356.88;5015131;28;867;-60
2022/09/13 07:33:57;;;;;;;;;;;;;;;25.21;36.48;99347.38;5015160;28;855;-60
2022/09/13 07:36:24;;;;;;;;;;;;;;;25.26;35.89;99343.81;5015017;28;886;-60
2022/09/13 07:38:54;;;;;;;;;;;;;;;24.59;36.72;99344.50;5015003;28;957;-60
2022/09/13 07:41:22;;;;;;;;;;;;;;;24.91;36.39;99343.53;5015022;28;838;-60
2022/09/13 07:43:49;;;;;;;;;;;;;;;25.67;35.70;99350.94;5014874;28;819;-59
2022/09/13 07:46:16;;;;;;;;;;;;;;;25.84;35.61;99340.31;5014890;28;1894;-60
2022/09/13 07:51:57;;;;;;;;;;;;;;;24.07;37.20;99361.78;5014808;28;598;-60
2022/09/13 07:54:23;;;;;;;;;;;;;;;24.50;37.23;99358.88;5014964;28;815;-59
2022/09/13 07:56:50;;;;;;;;;;;;;;;24.85;37.09;99364.06;5015216;28;877;-60
2022/09/13 07:59:18;;;;;;;;;;;;;;;25.22;36.72;99359.47;5014939;28;826;-59
2022/09/13 08:01:48;;;;;;;;;;;;;;;25.74;36.26;99355.28;5014730;28;869;-60
2022/09/13 08:04:17;;;;;;;;;;;;;;;26.46;35.19;99359.91;5014476;28;882;-60
2022/09/13 08:06:43;;;;;;;;;;;;;;;26.54;34.50;99362.16;5014648;28;1898;-60
2022/09/13 08:09:10;;;;;;;;;;;;;;;25.74;34.90;99358.88;5014463;28;854;-61
2022/09/13 08:11:38;;;;;;;;;;;;;;;25.58;35.57;99356.84;5014408;28;1133;-60
2022/09/13 08:14:07;;;;;;;;;;;;;;;25.42;35.79;99362.03;5014378;28;866;-60
2022/09/13 08:16:34;;;;;;;;;;;;;;;25.30;35.96;99363.31;4996647;28;1265;-60
2022/09/13 08:19:01;;;;;;;;;;;;;;;25.94;34.72;99352.16;5014278;28;798;-60
2022/09/13 08:21:31;;;;;;;;;;;;;;;26.38;34.70;99355.31;5014018;28;851;-60
2022/09/13 08:23:59;;;;;;;;;;;;;;;27.10;32.85;99358.97;5014224;28;822;-60
2022/09/13 08:26:27;;;;;;;;;;;;;;;27.66;31.76;99343.50;4996391;28;1906;-60
2022/09/13 08:28:57;;;;;;;;;;;;;;;28.32;31.26;99345.31;5014053;28;877;-60
2022/09/13 08:31:26;;;;;;;;;;;;;;;28.59;30.14;99349.06;5014035;28;858;-59
2022/09/13 08:33:53;;;;;;;;;;;;;;;28.72;29.58;99340.63;5013881;28;854;-60
2022/09/13 08:36:22;;;;;;;;;;;;;;;29.49;29.00;99337.00;4996359;28;2459;-61
2022/09/13 08:51:03;;;;;;;;;;;;;;;27.85;29.33;99329.34;5014021;28;617;-61
2022/09/13 08:53:30;;;;;;;;;;;;;;;28.55;28.47;99323.81;5013598;28;795;-61
2022/09/13 08:56:06;;;;;;;;;;;;;;;27.98;28.76;99325.88;5013534;28;959;-61
2022/09/13 08:58:33;;;;;;;;;;;;;;;27.52;29.20;99322.72;5013692;28;871;-61
2022/09/13 09:01:05;;;;;;;;;;;;;;;27.19;28.86;99321.00;5013401;28;854;-61
2022/09/13 09:03:40;;;;;;;;;;;;;;;25.93;29.45;99313.06;5013629;28;870;-61
2022/09/13 09:06:11;;;;;;;;;;;;;;;24.40;32.05;99332.88;5013342;28;1943;-61
2022/09/13 09:21:47;;;;;;;;;;;;;;;26.62;29.64;99307.25;5012330;28;1346;-60
2022/09/13 09:24:35;;;;;;;;;;;;;;;26.62;29.50;99307.25;5013085;28;807;-61
2022/09/13 09:27:09;;;;;;;;;;;;;;;26.84;29.08;99311.22;5012979;28;1977;-62
